sensor_id;sensor_type;location;lat;lon;timestamp;temperature;humidity
56240;DHT22;42154;51.992;5.896;2023-02-05T00:01:26;8.30;99.90
56240;DHT22;42154;51.992;5.896;2023-02-05T00:03:51;8.30;99.90
56240;DHT22;42154;51.992;5.896;2023-02-05T00:06:17;8.30;99.90
56240;DHT22;42154;51.992;5.896;2023-02-05T00:08:43;8.30;99.90
56240;DHT22;42154;51.992;5.896;2023-02-05T00:11:09;8.30;99.90
56240;DHT22;42154;51.992;5.896;2023-02-05T00:13:36;8.30;99.90
56240;DHT22;42154;51.992;5.896;2023-02-05T00:16:13;8.30;99.90
56240;DHT22;42154;51.992;5.896;2023-02-05T00:18:39;8.30;99.90
56240;DHT22;42154;51.992;5.896;2023-02-05T00:21:05;8.30;99.90
56240;DHT22;42154;51.992;5.896;2023-02-05T00:23:32;8.30;99.90
56240;DHT22;42154;51.992;5.896;2023-02-05T00:25:58;8.30;99.90
56240;DHT22;42154;51.992;5.896;2023-02-05T00:28:24;8.30;99.90
56240;DHT22;42154;51.992;5.896;2023-02-05T00:30:50;8.30;99.90
56240;DHT22;42154;51.992;5.896;2023-02-05T00:33:15;8.30;99.90
56240;DHT22;42154;51.992;5.896;2023-02-05T00:35:42;8.30;99.90
56240;DHT22;42154;51.992;5.896;2023-02-05T00:38:10;8.40;99.90
56240;DHT22;42154;51.992;5.896;2023-02-05T00:40:36;8.40;99.90
56240;DHT22;42154;51.992;5.896;2023-02-05T00:43:02;8.40;99.90
56240;DHT22;42154;51.992;5.896;2023-02-05T00:45:27;8.40;99.90
56240;DHT22;42154;51.992;5.896;2023-02-05T00:48:03;8.40;99.90
56240;DHT22;42154;51.992;5.896;2023-02-05T00:50:30;8.40;99.90
56240;DHT22;42154;51.992;5.896;2023-02-05T00:52:55;8.40;99.90
56240;DHT22;42154;51.992;5.896;2023-02-05T00:55:21;8.40;99.90
56240;DHT22;42154;51.992;5.896;2023-02-05T00:57:47;8.40;99.90
56240;DHT22;42154;51.992;5.896;2023-02-05T01:00:13;8.50;99.90
56240;DHT22;42154;51.992;5.896;2023-02-05T01:02:39;8.50;99.90
56240;DHT22;42154;51.992;5.896;2023-02-05T01:05:05;8.50;99.90
56240;DHT22;42154;51.992;5.896;2023-02-05T01:07:31;8.40;99.90
56240;DHT22;42154;51.992;5.896;2023-02-05T01:09:57;8.50;99.90
56240;DHT22;42154;51.992;5.896;2023-02-05T01:12:23;8.50;99.90
56240;DHT22;42154;51.992;5.896;2023-02-05T01:14:49;8.40;99.90
56240;DHT22;42154;51.992;5.896;2023-02-05T01:17:14;8.50;99.90
56240;DHT22;42154;51.992;5.896;2023-02-05T01:19:40;8.50;99.90
56240;DHT22;42154;51.992;5.896;2023-02-05T01:22:06;8.50;99.90
56240;DHT22;42154;51.992;5.896;2023-02-05T01:24:32;8.50;99.90
56240;DHT22;42154;51.992;5.896;2023-02-05T01:26:58;8.50;99.90
56240;DHT22;42154;51.992;5.896;2023-02-05T01:29:25;8.50;99.90
56240;DHT22;42154;51.992;5.896;2023-02-05T01:31:51;8.50;99.90
56240;DHT22;42154;51.992;5.896;2023-02-05T01:34:17;8.50;99.90
56240;DHT22;42154;51.992;5.896;2023-02-05T01:36:43;8.50;99.90
56240;DHT22;42154;51.992;5.896;2023-02-05T01:39:08;8.50;99.90
56240;DHT22;42154;51.992;5.896;2023-02-05T01:41:34;8.50;99.90
56240;DHT22;42154;51.992;5.896;2023-02-05T01:46:34;8.60;99.90
56240;DHT22;42154;51.992;5.896;2023-02-05T01:49:01;8.60;99.90
56240;DHT22;42154;51.992;5.896;2023-02-05T01:51:29;8.60;99.90
56240;DHT22;42154;51.992;5.896;2023-02-05T01:53:56;8.60;99.90
56240;DHT22;42154;51.992;5.896;2023-02-05T01:56:25;8.60;99.90
56240;DHT22;42154;51.992;5.896;2023-02-05T01:58:58;8.50;99.90
56240;DHT22;42154;51.992;5.896;2023-02-05T02:01:25;8.50;99.90
56240;DHT22;42154;51.992;5.896;2023-02-05T02:03:53;8.50;99.90
56240;DHT22;42154;51.992;5.896;2023-02-05T02:06:19;8.60;99.90
56240;DHT22;42154;51.992;5.896;2023-02-05T02:08:45;8.60;99.90
56240;DHT22;42154;51.992;5.896;2023-02-05T02:11:13;8.60;99.90
56240;DHT22;42154;51.992;5.896;2023-02-05T02:13:42;8.60;99.90
56240;DHT22;42154;51.992;5.896;2023-02-05T02:16:10;8.60;99.90
56240;DHT22;42154;51.992;5.896;2023-02-05T02:18:37;8.60;99.90
56240;DHT22;42154;51.992;5.896;2023-02-05T02:21:36;8.60;99.90
56240;DHT22;42154;51.992;5.896;2023-02-05T02:24:28;8.70;99.90
56240;DHT22;42154;51.992;5.896;2023-02-05T02:27:16;8.60;99.90
56240;DHT22;42154;51.992;5.896;2023-02-05T02:33:17;8.60;99.90
56240;DHT22;42154;51.992;5.896;2023-02-05T02:35:55;8.60;99.90
56240;DHT22;42154;51.992;5.896;2023-02-05T02:38:39;8.60;99.90
56240;DHT22;42154;51.992;5.896;2023-02-05T02:41:16;8.60;99.90
56240;DHT22;42154;51.992;5.896;2023-02-05T02:43:52;8.60;99.90
56240;DHT22;42154;51.992;5.896;2023-02-05T02:46:27;8.60;99.90
56240;DHT22;42154;51.992;5.896;2023-02-05T02:48:57;8.60;99.90
56240;DHT22;42154;51.992;5.896;2023-02-05T02:51:24;8.60;99.90
56240;DHT22;42154;51.992;5.896;2023-02-05T02:53:56;8.60;99.90
56240;DHT22;42154;51.992;5.896;2023-02-05T02:56:24;8.60;99.90
56240;DHT22;42154;51.992;5.896;2023-02-05T02:58:55;8.60;99.90
56240;DHT22;42154;51.992;5.896;2023-02-05T03:01:24;8.60;99.90
56240;DHT22;42154;51.992;5.896;2023-02-05T03:04:01;8.60;99.90
56240;DHT22;42154;51.992;5.896;2023-02-05T03:06:30;8.60;99.90
56240;DHT22;42154;51.992;5.896;2023-02-05T03:09:29;8.60;99.90
56240;DHT22;42154;51.992;5.896;2023-02-05T03:11:57;8.60;99.90
56240;DHT22;42154;51.992;5.896;2023-02-05T03:14:24;8.50;99.90
56240;DHT22;42154;51.992;5.896;2023-02-05T03:16:51;8.50;99.90
56240;DHT22;42154;51.992;5.896;2023-02-05T03:19:17;8.50;99.90
56240;DHT22;42154;51.992;5.896;2023-02-05T03:21:47;8.50;99.90
56240;DHT22;42154;51.992;5.896;2023-02-05T03:24:16;8.50;99.90
56240;DHT22;42154;51.992;5.896;2023-02-05T03:26:42;8.40;99.90
56240;DHT22;42154;51.992;5.896;2023-02-05T03:29:34;8.40;99.90
56240;DHT22;42154;51.992;5.896;2023-02-05T03:51:43;8.40;99.90
56240;DHT22;42154;51.992;5.896;2023-02-05T03:57:49;8.40;99.90
56240;DHT22;42154;51.992;5.896;2023-02-05T04:00:18;8.40;99.90
56240;DHT22;42154;51.992;5.896;2023-02-05T04:02:46;8.30;99.90
56240;DHT22;42154;51.992;5.896;2023-02-05T04:05:17;8.30;99.90
56240;DHT22;42154;51.992;5.896;2023-02-05T04:07:51;8.30;99.90
56240;DHT22;42154;51.992;5.896;2023-02-05T04:10:18;8.40;99.90
56240;DHT22;42154;51.992;5.896;2023-02-05T04:12:46;8.30;99.90
56240;DHT22;42154;51.992;5.896;2023-02-05T04:15:12;8.30;99.90
56240;DHT22;42154;51.992;5.896;2023-02-05T04:17:41;8.30;99.90
56240;DHT22;42154;51.992;5.896;2023-02-05T04:20:08;8.30;99.90
56240;DHT22;42154;51.992;5.896;2023-02-05T04:22:34;8.30;99.90
56240;DHT22;42154;51.992;5.896;2023-02-05T04:25:00;8.30;99.90
56240;DHT22;42154;51.992;5.896;2023-02-05T04:27:25;8.30;99.90
56240;DHT22;42154;51.992;5.896;2023-02-05T04:29:53;8.30;99.90
56240;DHT22;42154;51.992;5.896;2023-02-05T04:32:18;8.30;99.90
56240;DHT22;42154;51.992;5.896;2023-02-05T04:34:45;8.30;99.90
56240;DHT22;42154;51.992;5.896;2023-02-05T04:37:12;8.30;99.90
56240;DHT22;42154;51.992;5.896;2023-02-05T04:39:38;8.40;99.90
56240;DHT22;42154;51.992;5.896;2023-02-05T04:42:04;8.30;99.90
56240;DHT22;42154;51.992;5.896;2023-02-05T04:44:29;8.30;99.90
56240;DHT22;42154;51.992;5.896;2023-02-05T04:46:55;8.30;99.90
56240;DHT22;42154;51.992;5.896;2023-02-05T04:49:21;8.30;99.90
56240;DHT22;42154;51.992;5.896;2023-02-05T04:51:47;8.30;99.90
56240;DHT22;42154;51.992;5.896;2023-02-05T04:54:12;8.30;99.90
56240;DHT22;42154;51.992;5.896;2023-02-05T04:56:38;8.30;99.90
56240;DHT22;42154;51.992;5.896;2023-02-05T04:59:04;8.30;99.90
56240;DHT22;42154;51.992;5.896;2023-02-05T05:01:30;8.30;99.90
56240;DHT22;42154;51.992;5.896;2023-02-05T05:03:56;8.30;99.90
56240;DHT22;42154;51.992;5.896;2023-02-05T05:06:21;8.30;99.90
56240;DHT22;42154;51.992;5.896;2023-02-05T05:08:47;8.30;99.90
56240;DHT22;42154;51.992;5.896;2023-02-05T05:11:17;8.30;99.90
56240;DHT22;42154;51.992;5.896;2023-02-05T05:13:44;8.30;99.90
56240;DHT22;42154;51.992;5.896;2023-02-05T05:16:10;8.30;99.90
56240;DHT22;42154;51.992;5.896;2023-02-05T05:18:37;8.30;99.90
56240;DHT22;42154;51.992;5.896;2023-02-05T05:21:03;8.30;99.90
56240;DHT22;42154;51.992;5.896;2023-02-05T05:23:30;8.30;99.90
56240;DHT22;42154;51.992;5.896;2023-02-05T05:25:56;8.30;99.90
56240;DHT22;42154;51.992;5.896;2023-02-05T05:28:22;8.30;99.90
56240;DHT22;42154;51.992;5.896;2023-02-05T05:30:47;8.30;99.90
56240;DHT22;42154;51.992;5.896;2023-02-05T05:33:14;8.20;99.90
56240;DHT22;42154;51.992;5.896;2023-02-05T05:35:40;8.20;99.90
56240;DHT22;42154;51.992;5.896;2023-02-05T05:38:06;8.20;99.90
56240;DHT22;42154;51.992;5.896;2023-02-05T05:40:32;8.20;99.90
56240;DHT22;42154;51.992;5.896;2023-02-05T05:43:19;8.20;99.90
56240;DHT22;42154;51.992;5.896;2023-02-05T05:46:04;8.20;99.90
56240;DHT22;42154;51.992;5.896;2023-02-05T05:48:30;8.20;99.90
56240;DHT22;42154;51.992;5.896;2023-02-05T05:50:56;8.10;99.90
56240;DHT22;42154;51.992;5.896;2023-02-05T05:53:22;8.20;99.90
56240;DHT22;42154;51.992;5.896;2023-02-05T05:58:36;8.10;99.90
56240;DHT22;42154;51.992;5.896;2023-02-05T06:01:03;8.10;99.90
56240;DHT22;42154;51.992;5.896;2023-02-05T06:03:29;8.10;99.90
56240;DHT22;42154;51.992;5.896;2023-02-05T06:05:55;8.00;99.90
56240;DHT22;42154;51.992;5.896;2023-02-05T06:08:20;8.00;99.90
56240;DHT22;42154;51.992;5.896;2023-02-05T06:10:46;8.00;99.90
56240;DHT22;42154;51.992;5.896;2023-02-05T06:13:12;8.00;99.90
56240;DHT22;42154;51.992;5.896;2023-02-05T06:15:38;8.00;99.90
56240;DHT22;42154;51.992;5.896;2023-02-05T06:18:03;8.00;99.90
56240;DHT22;42154;51.992;5.896;2023-02-05T06:20:29;8.00;99.90
56240;DHT22;42154;51.992;5.896;2023-02-05T06:22:55;7.90;99.90
56240;DHT22;42154;51.992;5.896;2023-02-05T06:25:20;7.90;99.90
56240;DHT22;42154;51.992;5.896;2023-02-05T06:27:46;7.90;99.90
56240;DHT22;42154;51.992;5.896;2023-02-05T06:30:12;7.80;99.90
56240;DHT22;42154;51.992;5.896;2023-02-05T06:32:38;7.70;99.90
56240;DHT22;42154;51.992;5.896;2023-02-05T06:35:04;7.60;99.90
56240;DHT22;42154;51.992;5.896;2023-02-05T06:37:29;7.50;99.90
56240;DHT22;42154;51.992;5.896;2023-02-05T06:39:55;7.40;99.90
56240;DHT22;42154;51.992;5.896;2023-02-05T06:42:21;7.30;99.90
56240;DHT22;42154;51.992;5.896;2023-02-05T06:44:47;7.30;99.90
56240;DHT22;42154;51.992;5.896;2023-02-05T06:47:13;7.20;99.90
56240;DHT22;42154;51.992;5.896;2023-02-05T06:49:38;7.20;99.90
56240;DHT22;42154;51.992;5.896;2023-02-05T06:52:04;7.10;99.90
56240;DHT22;42154;51.992;5.896;2023-02-05T06:54:30;7.10;99.90
56240;DHT22;42154;51.992;5.896;2023-02-05T06:56:56;7.00;99.90
56240;DHT22;42154;51.992;5.896;2023-02-05T06:59:22;7.00;99.90
56240;DHT22;42154;51.992;5.896;2023-02-05T07:01:48;6.90;99.90
56240;DHT22;42154;51.992;5.896;2023-02-05T07:04:14;6.90;99.90
56240;DHT22;42154;51.992;5.896;2023-02-05T07:06:40;6.90;99.90
56240;DHT22;42154;51.992;5.896;2023-02-05T07:09:05;6.90;99.90
56240;DHT22;42154;51.992;5.896;2023-02-05T07:11:31;6.80;99.90
56240;DHT22;42154;51.992;5.896;2023-02-05T07:14:00;6.70;99.90
56240;DHT22;42154;51.992;5.896;2023-02-05T07:16:27;6.80;99.90
56240;DHT22;42154;51.992;5.896;2023-02-05T07:18:53;6.80;99.90
56240;DHT22;42154;51.992;5.896;2023-02-05T07:21:19;6.80;99.90
56240;DHT22;42154;51.992;5.896;2023-02-05T07:23:44;6.80;99.90
56240;DHT22;42154;51.992;5.896;2023-02-05T07:26:13;6.80;99.90
56240;DHT22;42154;51.992;5.896;2023-02-05T07:28:39;6.80;99.90
56240;DHT22;42154;51.992;5.896;2023-02-05T07:31:08;6.80;99.90
56240;DHT22;42154;51.992;5.896;2023-02-05T07:33:34;6.80;99.90
56240;DHT22;42154;51.992;5.896;2023-02-05T07:36:04;6.80;99.90
56240;DHT22;42154;51.992;5.896;2023-02-05T07:38:31;6.80;99.90
56240;DHT22;42154;51.992;5.896;2023-02-05T07:40:57;6.80;99.90
56240;DHT22;42154;51.992;5.896;2023-02-05T07:43:23;6.90;99.90
56240;DHT22;42154;51.992;5.896;2023-02-05T07:45:55;6.80;99.90
56240;DHT22;42154;51.992;5.896;2023-02-05T07:48:21;6.90;99.90
56240;DHT22;42154;51.992;5.896;2023-02-05T07:50:47;6.90;99.90
56240;DHT22;42154;51.992;5.896;2023-02-05T07:53:13;6.90;99.90
56240;DHT22;42154;51.992;5.896;2023-02-05T07:55:40;6.80;99.90
56240;DHT22;42154;51.992;5.896;2023-02-05T07:58:05;6.90;99.90
56240;DHT22;42154;51.992;5.896;2023-02-05T08:00:31;6.90;99.90
56240;DHT22;42154;51.992;5.896;2023-02-05T08:02:57;6.90;99.90
56240;DHT22;42154;51.992;5.896;2023-02-05T08:05:23;6.90;99.90
56240;DHT22;42154;51.992;5.896;2023-02-05T08:07:48;6.90;99.90
56240;DHT22;42154;51.992;5.896;2023-02-05T08:10:14;6.90;99.90
56240;DHT22;42154;51.992;5.896;2023-02-05T08:12:40;7.00;99.90
56240;DHT22;42154;51.992;5.896;2023-02-05T08:15:06;6.90;99.90
56240;DHT22;42154;51.992;5.896;2023-02-05T08:17:32;6.90;99.90
56240;DHT22;42154;51.992;5.896;2023-02-05T08:19:57;6.90;99.90
56240;DHT22;42154;51.992;5.896;2023-02-05T08:22:32;6.90;99.90
56240;DHT22;42154;51.992;5.896;2023-02-05T08:24:58;6.90;99.90
56240;DHT22;42154;51.992;5.896;2023-02-05T08:27:24;6.90;99.90
56240;DHT22;42154;51.992;5.896;2023-02-05T08:29:50;6.90;99.90
56240;DHT22;42154;51.992;5.896;2023-02-05T08:32:16;6.90;99.90
56240;DHT22;42154;51.992;5.896;2023-02-05T08:34:41;6.90;99.90
56240;DHT22;42154;51.992;5.896;2023-02-05T08:37:07;6.90;99.90
56240;DHT22;42154;51.992;5.896;2023-02-05T08:39:33;7.00;99.90
56240;DHT22;42154;51.992;5.896;2023-02-05T08:41:59;7.00;99.90
56240;DHT22;42154;51.992;5.896;2023-02-05T08:44:24;7.00;99.90
56240;DHT22;42154;51.992;5.896;2023-02-05T08:46:51;7.00;99.90
56240;DHT22;42154;51.992;5.896;2023-02-05T08:49:17;6.90;99.90
56240;DHT22;42154;51.992;5.896;2023-02-05T08:51:43;6.90;99.90
56240;DHT22;42154;51.992;5.896;2023-02-05T08:54:09;6.90;99.90
56240;DHT22;42154;51.992;5.896;2023-02-05T08:56:42;7.00;99.90
56240;DHT22;42154;51.992;5.896;2023-02-05T08:59:09;7.00;99.90
56240;DHT22;42154;51.992;5.896;2023-02-05T09:01:36;7.10;99.90
56240;DHT22;42154;51.992;5.896;2023-02-05T09:04:38;7.10;99.90
56240;DHT22;42154;51.992;5.896;2023-02-05T09:06:57;7.10;99.90
56240;DHT22;42154;51.992;5.896;2023-02-05T09:09:23;7.10;99.90
56240;DHT22;42154;51.992;5.896;2023-02-05T09:11:48;7.00;99.90
56240;DHT22;42154;51.992;5.896;2023-02-05T09:14:14;7.00;99.90
56240;DHT22;42154;51.992;5.896;2023-02-05T09:16:40;7.00;99.90
56240;DHT22;42154;51.992;5.896;2023-02-05T09:19:07;7.10;99.90
56240;DHT22;42154;51.992;5.896;2023-02-05T09:21:33;7.20;99.90
56240;DHT22;42154;51.992;5.896;2023-02-05T09:23:59;7.20;99.90
56240;DHT22;42154;51.992;5.896;2023-02-05T09:26:25;7.30;99.90
56240;DHT22;42154;51.992;5.896;2023-02-05T09:28:51;7.40;99.90
56240;DHT22;42154;51.992;5.896;2023-02-05T09:31:18;7.50;99.90
56240;DHT22;42154;51.992;5.896;2023-02-05T09:33:44;7.50;99.90
56240;DHT22;42154;51.992;5.896;2023-02-05T09:36:18;7.50;99.90
56240;DHT22;42154;51.992;5.896;2023-02-05T09:38:44;7.50;99.90
56240;DHT22;42154;51.992;5.896;2023-02-05T09:41:16;7.60;99.90
56240;DHT22;42154;51.992;5.896;2023-02-05T09:49:20;7.70;99.90
56240;DHT22;42154;51.992;5.896;2023-02-05T09:52:00;7.70;99.90
56240;DHT22;42154;51.992;5.896;2023-02-05T09:54:38;7.60;99.90
56240;DHT22;42154;51.992;5.896;2023-02-05T09:57:10;7.60;99.90
56240;DHT22;42154;51.992;5.896;2023-02-05T09:59:42;7.60;99.90
56240;DHT22;42154;51.992;5.896;2023-02-05T10:02:30;7.60;99.90
56240;DHT22;42154;51.992;5.896;2023-02-05T10:04:57;7.60;99.90
56240;DHT22;42154;51.992;5.896;2023-02-05T10:07:40;7.60;99.90
56240;DHT22;42154;51.992;5.896;2023-02-05T10:10:23;7.60;99.90
56240;DHT22;42154;51.992;5.896;2023-02-05T10:21:14;7.70;99.90
56240;DHT22;42154;51.992;5.896;2023-02-05T10:26:34;7.80;99.90
56240;DHT22;42154;51.992;5.896;2023-02-05T10:32:21;7.90;99.90
56240;DHT22;42154;51.992;5.896;2023-02-05T10:35:19;8.00;99.90
56240;DHT22;42154;51.992;5.896;2023-02-05T10:37:50;8.10;99.90
56240;DHT22;42154;51.992;5.896;2023-02-05T10:40:18;8.00;99.90
56240;DHT22;42154;51.992;5.896;2023-02-05T10:42:50;8.10;99.90
56240;DHT22;42154;51.992;5.896;2023-02-05T10:45:27;8.10;99.90
56240;DHT22;42154;51.992;5.896;2023-02-05T10:50:35;8.10;99.90
56240;DHT22;42154;51.992;5.896;2023-02-05T10:53:08;8.10;99.90
56240;DHT22;42154;51.992;5.896;2023-02-05T10:55:34;8.10;99.90
56240;DHT22;42154;51.992;5.896;2023-02-05T10:58:16;8.10;99.90
56240;DHT22;42154;51.992;5.896;2023-02-05T11:00:46;8.10;99.90
56240;DHT22;42154;51.992;5.896;2023-02-05T11:03:16;8.10;99.90
56240;DHT22;42154;51.992;5.896;2023-02-05T11:05:43;8.10;99.90
56240;DHT22;42154;51.992;5.896;2023-02-05T11:11:03;8.10;99.90
56240;DHT22;42154;51.992;5.896;2023-02-05T11:13:29;8.10;99.90
56240;DHT22;42154;51.992;5.896;2023-02-05T11:16:01;8.10;99.90
56240;DHT22;42154;51.992;5.896;2023-02-05T11:18:54;8.20;99.90
56240;DHT22;42154;51.992;5.896;2023-02-05T11:21:22;8.20;99.90
56240;DHT22;42154;51.992;5.896;2023-02-05T11:23:56;8.20;99.90
56240;DHT22;42154;51.992;5.896;2023-02-05T11:26:24;8.30;99.90
56240;DHT22;42154;51.992;5.896;2023-02-05T11:28:50;8.30;99.90
56240;DHT22;42154;51.992;5.896;2023-02-05T11:31:42;8.30;99.90
56240;DHT22;42154;51.992;5.896;2023-02-05T11:34:11;8.30;99.90
56240;DHT22;42154;51.992;5.896;2023-02-05T11:36:47;8.30;99.90
56240;DHT22;42154;51.992;5.896;2023-02-05T11:39:36;8.30;99.90
56240;DHT22;42154;51.992;5.896;2023-02-05T11:44:38;8.40;99.90
56240;DHT22;42154;51.992;5.896;2023-02-05T11:47:11;8.50;99.90
56240;DHT22;42154;51.992;5.896;2023-02-05T11:49:49;8.60;99.90
56240;DHT22;42154;51.992;5.896;2023-02-05T11:52:17;8.70;99.90
56240;DHT22;42154;51.992;5.896;2023-02-05T11:54:47;8.70;99.90
56240;DHT22;42154;51.992;5.896;2023-02-05T12:00:00;8.60;99.90
56240;DHT22;42154;51.992;5.896;2023-02-05T12:07:57;8.60;99.90
56240;DHT22;42154;51.992;5.896;2023-02-05T12:13:23;8.50;99.90
56240;DHT22;42154;51.992;5.896;2023-02-05T12:21:56;8.60;99.90
56240;DHT22;42154;51.992;5.896;2023-02-05T12:33:15;8.60;99.90
56240;DHT22;42154;51.992;5.896;2023-02-05T12:38:56;8.90;99.90
56240;DHT22;42154;51.992;5.896;2023-02-05T12:41:56;9.10;99.90
56240;DHT22;42154;51.992;5.896;2023-02-05T12:44:45;9.20;99.90
56240;DHT22;42154;51.992;5.896;2023-02-05T12:47:49;9.30;99.90
56240;DHT22;42154;51.992;5.896;2023-02-05T12:50:52;9.30;99.90
56240;DHT22;42154;51.992;5.896;2023-02-05T12:58:50;9.10;99.90
56240;DHT22;42154;51.992;5.896;2023-02-05T13:01:38;9.10;99.90
56240;DHT22;42154;51.992;5.896;2023-02-05T13:04:05;8.90;99.90
56240;DHT22;42154;51.992;5.896;2023-02-05T13:06:50;8.80;99.90
56240;DHT22;42154;51.992;5.896;2023-02-05T13:12:08;8.70;99.90
56240;DHT22;42154;51.992;5.896;2023-02-05T13:17:28;8.70;99.90
56240;DHT22;42154;51.992;5.896;2023-02-05T13:19:58;8.80;99.90
56240;DHT22;42154;51.992;5.896;2023-02-05T13:25:18;9.10;99.90
56240;DHT22;42154;51.992;5.896;2023-02-05T13:28:12;9.20;99.90
56240;DHT22;42154;51.992;5.896;2023-02-05T13:31:00;9.20;99.90
56240;DHT22;42154;51.992;5.896;2023-02-05T13:33:27;9.20;99.90
56240;DHT22;42154;51.992;5.896;2023-02-05T13:58:58;9.20;99.90
56240;DHT22;42154;51.992;5.896;2023-02-05T14:01:28;9.20;99.90
56240;DHT22;42154;51.992;5.896;2023-02-05T14:04:34;9.30;99.90
56240;DHT22;42154;51.992;5.896;2023-02-05T14:07:25;9.30;99.90
56240;DHT22;42154;51.992;5.896;2023-02-05T14:09:54;9.30;99.90
56240;DHT22;42154;51.992;5.896;2023-02-05T14:12:24;9.30;99.90
56240;DHT22;42154;51.992;5.896;2023-02-05T14:20:30;9.30;99.90
56240;DHT22;42154;51.992;5.896;2023-02-05T14:22:58;9.40;99.90
56240;DHT22;42154;51.992;5.896;2023-02-05T14:30:56;9.30;99.90
56240;DHT22;42154;51.992;5.896;2023-02-05T14:33:41;9.30;99.90
56240;DHT22;42154;51.992;5.896;2023-02-05T14:46:57;9.20;99.90
56240;DHT22;42154;51.992;5.896;2023-02-05T14:51:59;9.40;99.90
56240;DHT22;42154;51.992;5.896;2023-02-05T14:54:30;9.40;99.90
56240;DHT22;42154;51.992;5.896;2023-02-05T14:57:23;9.40;99.90
56240;DHT22;42154;51.992;5.896;2023-02-05T14:59:58;9.30;99.90
56240;DHT22;42154;51.992;5.896;2023-02-05T15:16:47;8.90;99.90
56240;DHT22;42154;51.992;5.896;2023-02-05T15:19:15;8.90;99.90
56240;DHT22;42154;51.992;5.896;2023-02-05T15:21:46;9.00;99.90
56240;DHT22;42154;51.992;5.896;2023-02-05T15:27:23;9.00;99.90
56240;DHT22;42154;51.992;5.896;2023-02-05T15:29:47;9.00;99.90
56240;DHT22;42154;51.992;5.896;2023-02-05T15:34:57;9.00;99.90
56240;DHT22;42154;51.992;5.896;2023-02-05T15:37:28;8.90;99.90
56240;DHT22;42154;51.992;5.896;2023-02-05T15:40:11;8.90;99.90
56240;DHT22;42154;51.992;5.896;2023-02-05T15:42:43;8.90;99.90
56240;DHT22;42154;51.992;5.896;2023-02-05T15:45:30;8.80;99.90
56240;DHT22;42154;51.992;5.896;2023-02-05T15:50:46;8.80;99.90
56240;DHT22;42154;51.992;5.896;2023-02-05T15:55:56;8.70;99.90
56240;DHT22;42154;51.992;5.896;2023-02-05T15:58:23;8.60;99.90
56240;DHT22;42154;51.992;5.896;2023-02-05T16:00:50;8.60;99.90
56240;DHT22;42154;51.992;5.896;2023-02-05T16:03:36;8.50;99.90
56240;DHT22;42154;51.992;5.896;2023-02-05T16:06:03;8.40;99.90
56240;DHT22;42154;51.992;5.896;2023-02-05T16:08:33;8.40;99.90
56240;DHT22;42154;51.992;5.896;2023-02-05T16:10:59;8.30;99.90
56240;DHT22;42154;51.992;5.896;2023-02-05T16:13:28;8.30;99.90
56240;DHT22;42154;51.992;5.896;2023-02-05T16:16:01;8.30;99.90
56240;DHT22;42154;51.992;5.896;2023-02-05T16:18:43;8.20;99.90
56240;DHT22;42154;51.992;5.896;2023-02-05T16:24:00;8.10;99.90
56240;DHT22;42154;51.992;5.896;2023-02-05T16:26:31;8.10;99.90
56240;DHT22;42154;51.992;5.896;2023-02-05T16:29:05;8.10;99.90
56240;DHT22;42154;51.992;5.896;2023-02-05T16:31:33;8.10;99.90
56240;DHT22;42154;51.992;5.896;2023-02-05T16:34:27;8.10;99.90
56240;DHT22;42154;51.992;5.896;2023-02-05T16:36:54;8.10;99.90
56240;DHT22;42154;51.992;5.896;2023-02-05T16:39:25;8.00;99.90
56240;DHT22;42154;51.992;5.896;2023-02-05T16:42:06;8.00;99.90
56240;DHT22;42154;51.992;5.896;2023-02-05T16:44:35;8.00;99.90
56240;DHT22;42154;51.992;5.896;2023-02-05T16:47:19;7.90;99.90
56240;DHT22;42154;51.992;5.896;2023-02-05T16:49:47;7.90;99.90
56240;DHT22;42154;51.992;5.896;2023-02-05T16:52:32;7.80;99.90
56240;DHT22;42154;51.992;5.896;2023-02-05T16:55:05;7.80;99.90
56240;DHT22;42154;51.992;5.896;2023-02-05T16:57:35;7.70;99.90
56240;DHT22;42154;51.992;5.896;2023-02-05T17:00:06;7.70;99.90
56240;DHT22;42154;51.992;5.896;2023-02-05T17:02:42;7.70;99.90
56240;DHT22;42154;51.992;5.896;2023-02-05T17:05:22;7.60;99.90
56240;DHT22;42154;51.992;5.896;2023-02-05T17:07:54;7.60;99.90
56240;DHT22;42154;51.992;5.896;2023-02-05T17:10:21;7.60;99.90
56240;DHT22;42154;51.992;5.896;2023-02-05T17:12:53;7.50;99.90
56240;DHT22;42154;51.992;5.896;2023-02-05T17:17:53;7.60;99.90
56240;DHT22;42154;51.992;5.896;2023-02-05T17:20:25;7.50;99.90
56240;DHT22;42154;51.992;5.896;2023-02-05T17:28:04;7.40;99.90
56240;DHT22;42154;51.992;5.896;2023-02-05T17:30:31;7.40;99.90
56240;DHT22;42154;51.992;5.896;2023-02-05T17:32:57;7.40;99.90
56240;DHT22;42154;51.992;5.896;2023-02-05T17:35:23;7.40;99.90
56240;DHT22;42154;51.992;5.896;2023-02-05T17:37:52;7.40;99.90
56240;DHT22;42154;51.992;5.896;2023-02-05T17:40:19;7.30;99.90
56240;DHT22;42154;51.992;5.896;2023-02-05T17:42:45;7.20;99.90
56240;DHT22;42154;51.992;5.896;2023-02-05T17:45:17;7.20;99.90
56240;DHT22;42154;51.992;5.896;2023-02-05T17:47:43;7.20;99.90
56240;DHT22;42154;51.992;5.896;2023-02-05T17:50:10;7.10;99.90
56240;DHT22;42154;51.992;5.896;2023-02-05T17:52:36;7.10;99.90
56240;DHT22;42154;51.992;5.896;2023-02-05T17:55:03;7.10;99.90
56240;DHT22;42154;51.992;5.896;2023-02-05T17:57:29;7.00;99.90
56240;DHT22;42154;51.992;5.896;2023-02-05T17:59:58;6.90;99.90
56240;DHT22;42154;51.992;5.896;2023-02-05T18:02:25;6.90;99.90
56240;DHT22;42154;51.992;5.896;2023-02-05T18:04:51;6.90;99.90
56240;DHT22;42154;51.992;5.896;2023-02-05T18:09:52;6.90;99.90
56240;DHT22;42154;51.992;5.896;2023-02-05T18:12:17;6.80;99.90
56240;DHT22;42154;51.992;5.896;2023-02-05T18:14:43;6.80;99.90
56240;DHT22;42154;51.992;5.896;2023-02-05T18:17:09;6.70;99.90
56240;DHT22;42154;51.992;5.896;2023-02-05T18:19:35;6.70;99.90
56240;DHT22;42154;51.992;5.896;2023-02-05T18:22:01;6.70;99.90
56240;DHT22;42154;51.992;5.896;2023-02-05T18:24:27;6.70;99.90
56240;DHT22;42154;51.992;5.896;2023-02-05T18:26:53;6.70;99.90
56240;DHT22;42154;51.992;5.896;2023-02-05T18:29:19;6.60;99.90
56240;DHT22;42154;51.992;5.896;2023-02-05T18:31:46;6.70;99.90
56240;DHT22;42154;51.992;5.896;2023-02-05T18:34:13;6.60;99.90
56240;DHT22;42154;51.992;5.896;2023-02-05T18:36:38;6.60;99.90
56240;DHT22;42154;51.992;5.896;2023-02-05T18:39:04;6.60;99.90
56240;DHT22;42154;51.992;5.896;2023-02-05T18:41:30;6.60;99.90
56240;DHT22;42154;51.992;5.896;2023-02-05T18:43:57;6.60;99.90
56240;DHT22;42154;51.992;5.896;2023-02-05T18:46:24;6.60;99.90
56240;DHT22;42154;51.992;5.896;2023-02-05T18:48:50;6.50;99.90
56240;DHT22;42154;51.992;5.896;2023-02-05T18:51:18;6.50;99.90
56240;DHT22;42154;51.992;5.896;2023-02-05T18:53:45;6.50;99.90
56240;DHT22;42154;51.992;5.896;2023-02-05T18:56:18;6.50;99.90
56240;DHT22;42154;51.992;5.896;2023-02-05T18:58:50;6.50;99.90
56240;DHT22;42154;51.992;5.896;2023-02-05T19:01:17;6.50;99.90
56240;DHT22;42154;51.992;5.896;2023-02-05T19:03:45;6.40;99.90
56240;DHT22;42154;51.992;5.896;2023-02-05T19:06:15;6.50;99.90
56240;DHT22;42154;51.992;5.896;2023-02-05T19:08:42;6.40;99.90
56240;DHT22;42154;51.992;5.896;2023-02-05T19:11:17;6.40;99.90